sensor_id;sensor_type;location;lat;lon;timestamp;P1;durP1;ratioP1;P2;durP2;ratioP2
53519;SDS011;39397;53.204;5.778;2022-09-09T00:00:17;3.47;;;1.02;;
53519;SDS011;39397;53.204;5.778;2022-09-09T00:02:54;3.53;;;0.80;;
53519;SDS011;39397;53.204;5.778;2022-09-09T00:08:15;1.67;;;0.57;;
53519;SDS011;39397;53.204;5.778;2022-09-09T00:10:49;3.30;;;1.02;;
53519;SDS011;39397;53.204;5.778;2022-09-09T00:13:26;2.42;;;1.10;;
53519;SDS011;39397;53.204;5.778;2022-09-09T00:16:28;3.67;;;1.10;;
53519;SDS011;39397;53.204;5.778;2022-09-09T00:19:07;2.30;;;0.90;;
53519;SDS011;39397;53.204;5.778;2022-09-09T00:24:28;3.13;;;1.10;;
53519;SDS011;39397;53.204;5.778;2022-09-09T00:27:07;2.70;;;0.95;;
53519;SDS011;39397;53.204;5.778;2022-09-09T00:29:43;4.05;;;1.10;;
53519;SDS011;39397;53.204;5.778;2022-09-09T00:32:13;2.85;;;1.50;;
53519;SDS011;39397;53.204;5.778;2022-09-09T00:34:47;3.15;;;0.93;;
53519;SDS011;39397;53.204;5.778;2022-09-09T00:37:16;3.72;;;1.00;;
53519;SDS011;39397;53.204;5.778;2022-09-09T00:39:46;2.80;;;1.00;;
53519;SDS011;39397;53.204;5.778;2022-09-09T00:42:15;3.10;;;1.10;;
53519;SDS011;39397;53.204;5.778;2022-09-09T00:44:51;4.30;;;1.20;;
53519;SDS011;39397;53.204;5.778;2022-09-09T00:55:28;1.10;;;0.82;;
53519;SDS011;39397;53.204;5.778;2022-09-09T00:58:10;3.72;;;1.30;;
53519;SDS011;39397;53.204;5.778;2022-09-09T01:00:46;2.42;;;1.15;;
53519;SDS011;39397;53.204;5.778;2022-09-09T01:03:22;2.20;;;0.90;;
53519;SDS011;39397;53.204;5.778;2022-09-09T01:11:22;3.75;;;0.90;;
53519;SDS011;39397;53.204;5.778;2022-09-09T01:14:14;1.77;;;0.75;;
53519;SDS011;39397;53.204;5.778;2022-09-09T01:16:57;2.80;;;1.05;;
53519;SDS011;39397;53.204;5.778;2022-09-09T01:27:51;3.72;;;0.98;;
53519;SDS011;39397;53.204;5.778;2022-09-09T01:30:20;4.57;;;1.40;;
53519;SDS011;39397;53.204;5.778;2022-09-09T01:32:50;2.53;;;0.80;;
53519;SDS011;39397;53.204;5.778;2022-09-09T01:38:11;3.10;;;1.30;;
53519;SDS011;39397;53.204;5.778;2022-09-09T01:40:38;3.83;;;1.13;;
53519;SDS011;39397;53.204;5.778;2022-09-09T01:43:04;2.78;;;1.25;;
53519;SDS011;39397;53.204;5.778;2022-09-09T01:45:31;3.15;;;1.10;;
53519;SDS011;39397;53.204;5.778;2022-09-09T01:47:57;4.15;;;1.50;;
53519;SDS011;39397;53.204;5.778;2022-09-09T01:50:24;3.30;;;1.30;;
53519;SDS011;39397;53.204;5.778;2022-09-09T01:52:51;3.33;;;0.90;;
53519;SDS011;39397;53.204;5.778;2022-09-09T01:55:23;2.28;;;1.05;;
53519;SDS011;39397;53.204;5.778;2022-09-09T02:00:41;1.60;;;0.90;;
53519;SDS011;39397;53.204;5.778;2022-09-09T02:03:18;3.53;;;0.93;;
53519;SDS011;39397;53.204;5.778;2022-09-09T02:08:36;3.05;;;0.98;;
53519;SDS011;39397;53.204;5.778;2022-09-09T02:11:13;3.38;;;0.90;;
53519;SDS011;39397;53.204;5.778;2022-09-09T02:13:40;4.50;;;1.20;;
53519;SDS011;39397;53.204;5.778;2022-09-09T02:16:11;4.13;;;1.35;;
53519;SDS011;39397;53.204;5.778;2022-09-09T02:18:49;2.03;;;0.90;;
53519;SDS011;39397;53.204;5.778;2022-09-09T02:21:18;1.35;;;0.90;;
53519;SDS011;39397;53.204;5.778;2022-09-09T02:23:44;2.28;;;0.95;;
53519;SDS011;39397;53.204;5.778;2022-09-09T02:26:14;1.90;;;0.75;;
53519;SDS011;39397;53.204;5.778;2022-09-09T02:28:45;1.80;;;0.90;;
53519;SDS011;39397;53.204;5.778;2022-09-09T02:31:12;2.85;;;1.00;;
53519;SDS011;39397;53.204;5.778;2022-09-09T02:33:41;2.67;;;0.93;;
53519;SDS011;39397;53.204;5.778;2022-09-09T02:36:12;3.75;;;0.93;;
53519;SDS011;39397;53.204;5.778;2022-09-09T02:38:42;3.95;;;1.20;;
53519;SDS011;39397;53.204;5.778;2022-09-09T02:41:15;1.98;;;0.80;;
53519;SDS011;39397;53.204;5.778;2022-09-09T02:43:49;1.67;;;0.80;;
53519;SDS011;39397;53.204;5.778;2022-09-09T02:56:25;1.33;;;0.73;;
53519;SDS011;39397;53.204;5.778;2022-09-09T02:58:53;2.67;;;1.27;;
53519;SDS011;39397;53.204;5.778;2022-09-09T03:01:20;2.22;;;0.90;;
53519;SDS011;39397;53.204;5.778;2022-09-09T03:03:45;2.40;;;0.82;;
53519;SDS011;39397;53.204;5.778;2022-09-09T03:06:11;2.30;;;1.13;;
53519;SDS011;39397;53.204;5.778;2022-09-09T03:08:37;2.05;;;0.90;;
53519;SDS011;39397;53.204;5.778;2022-09-09T03:11:03;1.50;;;0.80;;
53519;SDS011;39397;53.204;5.778;2022-09-09T03:13:29;1.88;;;0.90;;
53519;SDS011;39397;53.204;5.778;2022-09-09T03:15:55;3.00;;;1.20;;
53519;SDS011;39397;53.204;5.778;2022-09-09T03:18:21;2.22;;;0.90;;
53519;SDS011;39397;53.204;5.778;2022-09-09T03:20:46;1.77;;;0.80;;
53519;SDS011;39397;53.204;5.778;2022-09-09T03:23:16;4.72;;;0.95;;
53519;SDS011;39397;53.204;5.778;2022-09-09T03:25:48;2.97;;;1.30;;
53519;SDS011;39397;53.204;5.778;2022-09-09T03:28:15;1.85;;;0.63;;
53519;SDS011;39397;53.204;5.778;2022-09-09T03:30:41;1.83;;;0.90;;
53519;SDS011;39397;53.204;5.778;2022-09-09T03:33:06;2.28;;;0.73;;
53519;SDS011;39397;53.204;5.778;2022-09-09T03:35:32;2.33;;;0.90;;
53519;SDS011;39397;53.204;5.778;2022-09-09T03:37:57;1.90;;;0.90;;
53519;SDS011;39397;53.204;5.778;2022-09-09T03:40:23;4.22;;;1.45;;
53519;SDS011;39397;53.204;5.778;2022-09-09T03:42:49;3.60;;;1.00;;
53519;SDS011;39397;53.204;5.778;2022-09-09T03:45:14;1.75;;;0.75;;
53519;SDS011;39397;53.204;5.778;2022-09-09T03:47:41;1.73;;;0.80;;
53519;SDS011;39397;53.204;5.778;2022-09-09T03:50:07;3.17;;;1.02;;
53519;SDS011;39397;53.204;5.778;2022-09-09T03:52:35;2.40;;;0.95;;
53519;SDS011;39397;53.204;5.778;2022-09-09T03:55:05;1.80;;;0.75;;
53519;SDS011;39397;53.204;5.778;2022-09-09T03:57:32;3.28;;;1.10;;
53519;SDS011;39397;53.204;5.778;2022-09-09T04:00:00;2.08;;;0.73;;
53519;SDS011;39397;53.204;5.778;2022-09-09T04:02:30;2.33;;;1.00;;
53519;SDS011;39397;53.204;5.778;2022-09-09T04:04:55;2.10;;;0.68;;
53519;SDS011;39397;53.204;5.778;2022-09-09T04:07:21;1.55;;;0.80;;
53519;SDS011;39397;53.204;5.778;2022-09-09T04:09:47;3.45;;;0.95;;
53519;SDS011;39397;53.204;5.778;2022-09-09T04:12:13;2.08;;;0.93;;
53519;SDS011;39397;53.204;5.778;2022-09-09T04:14:39;3.67;;;0.98;;
53519;SDS011;39397;53.204;5.778;2022-09-09T04:17:04;2.58;;;0.90;;
53519;SDS011;39397;53.204;5.778;2022-09-09T04:19:31;0.80;;;0.63;;
53519;SDS011;39397;53.204;5.778;2022-09-09T04:21:57;3.15;;;0.77;;
53519;SDS011;39397;53.204;5.778;2022-09-09T04:24:23;2.28;;;0.75;;
53519;SDS011;39397;53.204;5.778;2022-09-09T04:26:50;1.02;;;0.60;;
53519;SDS011;39397;53.204;5.778;2022-09-09T04:29:16;3.28;;;0.88;;
53519;SDS011;39397;53.204;5.778;2022-09-09T04:31:41;4.85;;;1.27;;
53519;SDS011;39397;53.204;5.778;2022-09-09T04:34:08;2.10;;;0.82;;
53519;SDS011;39397;53.204;5.778;2022-09-09T04:36:34;2.42;;;0.98;;
53519;SDS011;39397;53.204;5.778;2022-09-09T04:39:01;1.77;;;0.70;;
53519;SDS011;39397;53.204;5.778;2022-09-09T04:41:27;2.50;;;0.95;;
53519;SDS011;39397;53.204;5.778;2022-09-09T04:43:53;3.38;;;0.90;;
53519;SDS011;39397;53.204;5.778;2022-09-09T04:46:20;2.67;;;1.00;;
53519;SDS011;39397;53.204;5.778;2022-09-09T04:48:48;1.58;;;0.82;;
53519;SDS011;39397;53.204;5.778;2022-09-09T04:51:14;1.98;;;0.82;;
53519;SDS011;39397;53.204;5.778;2022-09-09T04:53:40;1.60;;;0.70;;
53519;SDS011;39397;53.204;5.778;2022-09-09T04:56:07;2.72;;;0.90;;
53519;SDS011;39397;53.204;5.778;2022-09-09T04:58:38;2.58;;;0.70;;
53519;SDS011;39397;53.204;5.778;2022-09-09T05:01:11;2.58;;;0.80;;
53519;SDS011;39397;53.204;5.778;2022-09-09T05:03:39;1.30;;;0.60;;
53519;SDS011;39397;53.204;5.778;2022-09-09T05:06:15;1.45;;;0.95;;
53519;SDS011;39397;53.204;5.778;2022-09-09T05:08:43;3.00;;;0.60;;
53519;SDS011;39397;53.204;5.778;2022-09-09T05:11:13;2.35;;;0.75;;
53519;SDS011;39397;53.204;5.778;2022-09-09T05:13:45;3.60;;;0.70;;
53519;SDS011;39397;53.204;5.778;2022-09-09T05:16:11;1.70;;;0.70;;
53519;SDS011;39397;53.204;5.778;2022-09-09T05:18:38;1.58;;;0.63;;
53519;SDS011;39397;53.204;5.778;2022-09-09T05:21:04;3.47;;;0.70;;
53519;SDS011;39397;53.204;5.778;2022-09-09T05:23:30;2.85;;;0.77;;
53519;SDS011;39397;53.204;5.778;2022-09-09T05:25:57;1.48;;;0.57;;
53519;SDS011;39397;53.204;5.778;2022-09-09T05:28:23;2.42;;;0.65;;
53519;SDS011;39397;53.204;5.778;2022-09-09T05:30:57;4.10;;;0.90;;
53519;SDS011;39397;53.204;5.778;2022-09-09T05:33:33;1.70;;;0.73;;
53519;SDS011;39397;53.204;5.778;2022-09-09T05:36:03;1.33;;;0.65;;
53519;SDS011;39397;53.204;5.778;2022-09-09T05:38:33;2.72;;;1.00;;
53519;SDS011;39397;53.204;5.778;2022-09-09T05:40:59;1.77;;;0.82;;
53519;SDS011;39397;53.204;5.778;2022-09-09T05:43:27;2.08;;;0.70;;
53519;SDS011;39397;53.204;5.778;2022-09-09T05:46:01;3.80;;;0.80;;
53519;SDS011;39397;53.204;5.778;2022-09-09T05:48:35;2.40;;;0.77;;
53519;SDS011;39397;53.204;5.778;2022-09-09T05:51:02;1.95;;;0.80;;
53519;SDS011;39397;53.204;5.778;2022-09-09T05:53:29;4.53;;;0.98;;
53519;SDS011;39397;53.204;5.778;2022-09-09T05:56:04;5.20;;;0.80;;
53519;SDS011;39397;53.204;5.778;2022-09-09T05:58:31;3.65;;;0.80;;
53519;SDS011;39397;53.204;5.778;2022-09-09T06:01:02;3.88;;;1.13;;
53519;SDS011;39397;53.204;5.778;2022-09-09T06:03:39;1.98;;;0.80;;
53519;SDS011;39397;53.204;5.778;2022-09-09T06:06:10;2.95;;;1.02;;
53519;SDS011;39397;53.204;5.778;2022-09-09T06:08:39;3.50;;;0.95;;
53519;SDS011;39397;53.204;5.778;2022-09-09T06:11:11;1.92;;;0.80;;
53519;SDS011;39397;53.204;5.778;2022-09-09T06:13:42;3.63;;;1.10;;
53519;SDS011;39397;53.204;5.778;2022-09-09T06:16:09;3.28;;;1.48;;
53519;SDS011;39397;53.204;5.778;2022-09-09T06:18:36;2.03;;;0.82;;
53519;SDS011;39397;53.204;5.778;2022-09-09T06:21:04;1.83;;;0.82;;
53519;SDS011;39397;53.204;5.778;2022-09-09T06:23:31;3.13;;;0.93;;
53519;SDS011;39397;53.204;5.778;2022-09-09T06:26:07;2.35;;;0.93;;
53519;SDS011;39397;53.204;5.778;2022-09-09T06:28:36;1.85;;;0.90;;
53519;SDS011;39397;53.204;5.778;2022-09-09T06:31:03;2.55;;;1.00;;
53519;SDS011;39397;53.204;5.778;2022-09-09T06:33:31;2.42;;;0.77;;
53519;SDS011;39397;53.204;5.778;2022-09-09T06:35:59;1.88;;;0.75;;
53519;SDS011;39397;53.204;5.778;2022-09-09T06:38:25;3.55;;;1.08;;
53519;SDS011;39397;53.204;5.778;2022-09-09T06:40:54;1.77;;;0.82;;
53519;SDS011;39397;53.204;5.778;2022-09-09T06:43:21;3.47;;;1.30;;
53519;SDS011;39397;53.204;5.778;2022-09-09T06:48:20;2.75;;;1.20;;
53519;SDS011;39397;53.204;5.778;2022-09-09T06:50:46;3.67;;;1.23;;
53519;SDS011;39397;53.204;5.778;2022-09-09T06:53:12;2.78;;;1.20;;
53519;SDS011;39397;53.204;5.778;2022-09-09T06:55:41;3.45;;;1.20;;
53519;SDS011;39397;53.204;5.778;2022-09-09T06:58:09;1.58;;;0.90;;
53519;SDS011;39397;53.204;5.778;2022-09-09T07:00:34;1.88;;;0.80;;
53519;SDS011;39397;53.204;5.778;2022-09-09T07:03:11;2.72;;;0.90;;
53519;SDS011;39397;53.204;5.778;2022-09-09T07:05:37;1.73;;;1.00;;
53519;SDS011;39397;53.204;5.778;2022-09-09T07:08:03;3.00;;;0.85;;
53519;SDS011;39397;53.204;5.778;2022-09-09T07:10:28;3.00;;;1.20;;
53519;SDS011;39397;53.204;5.778;2022-09-09T07:12:54;1.92;;;0.93;;
53519;SDS011;39397;53.204;5.778;2022-09-09T07:15:20;1.77;;;0.98;;
53519;SDS011;39397;53.204;5.778;2022-09-09T07:17:46;2.03;;;0.80;;
53519;SDS011;39397;53.204;5.778;2022-09-09T07:20:13;2.15;;;0.93;;
53519;SDS011;39397;53.204;5.778;2022-09-09T07:22:40;2.63;;;0.80;;
53519;SDS011;39397;53.204;5.778;2022-09-09T07:25:06;2.95;;;1.10;;
53519;SDS011;39397;53.204;5.778;2022-09-09T07:27:32;2.50;;;1.00;;
53519;SDS011;39397;53.204;5.778;2022-09-09T07:29:58;4.03;;;1.33;;
53519;SDS011;39397;53.204;5.778;2022-09-09T07:32:24;2.55;;;0.85;;
53519;SDS011;39397;53.204;5.778;2022-09-09T07:34:52;1.67;;;0.82;;
53519;SDS011;39397;53.204;5.778;2022-09-09T07:37:18;3.10;;;0.90;;
53519;SDS011;39397;53.204;5.778;2022-09-09T07:39:44;2.42;;;0.80;;
53519;SDS011;39397;53.204;5.778;2022-09-09T07:42:10;1.35;;;0.80;;
53519;SDS011;39397;53.204;5.778;2022-09-09T07:44:36;3.78;;;1.10;;
53519;SDS011;39397;53.204;5.778;2022-09-09T07:47:04;2.97;;;0.90;;
53519;SDS011;39397;53.204;5.778;2022-09-09T07:49:31;2.25;;;1.55;;
53519;SDS011;39397;53.204;5.778;2022-09-09T07:51:57;2.90;;;0.82;;
53519;SDS011;39397;53.204;5.778;2022-09-09T07:54:23;1.48;;;0.88;;
53519;SDS011;39397;53.204;5.778;2022-09-09T07:56:50;1.73;;;0.70;;
53519;SDS011;39397;53.204;5.778;2022-09-09T07:59:16;2.25;;;0.80;;
53519;SDS011;39397;53.204;5.778;2022-09-09T08:01:46;2.88;;;1.15;;
53519;SDS011;39397;53.204;5.778;2022-09-09T08:04:18;2.45;;;0.85;;
53519;SDS011;39397;53.204;5.778;2022-09-09T08:06:46;2.03;;;0.90;;
53519;SDS011;39397;53.204;5.778;2022-09-09T08:09:14;2.28;;;0.82;;
53519;SDS011;39397;53.204;5.778;2022-09-09T08:11:40;1.67;;;0.80;;
53519;SDS011;39397;53.204;5.778;2022-09-09T08:14:08;1.95;;;0.65;;
53519;SDS011;39397;53.204;5.778;2022-09-09T08:16:36;1.00;;;0.70;;
53519;SDS011;39397;53.204;5.778;2022-09-09T08:19:04;2.17;;;0.60;;
53519;SDS011;39397;53.204;5.778;2022-09-09T08:21:32;2.00;;;0.70;;
53519;SDS011;39397;53.204;5.778;2022-09-09T08:24:00;4.30;;;0.80;;
53519;SDS011;39397;53.204;5.778;2022-09-09T08:26:30;1.20;;;0.70;;
53519;SDS011;39397;53.204;5.778;2022-09-09T08:28:58;3.63;;;0.95;;
53519;SDS011;39397;53.204;5.778;2022-09-09T08:31:31;2.38;;;0.65;;
53519;SDS011;39397;53.204;5.778;2022-09-09T08:34:03;2.63;;;0.75;;
53519;SDS011;39397;53.204;5.778;2022-09-09T08:36:31;1.08;;;0.55;;
53519;SDS011;39397;53.204;5.778;2022-09-09T08:38:58;3.85;;;0.85;;
53519;SDS011;39397;53.204;5.778;2022-09-09T08:47:04;2.05;;;0.57;;
53519;SDS011;39397;53.204;5.778;2022-09-09T08:52:31;3.72;;;0.70;;
53519;SDS011;39397;53.204;5.778;2022-09-09T08:55:05;3.40;;;0.70;;
53519;SDS011;39397;53.204;5.778;2022-09-09T08:57:57;5.47;;;0.93;;
53519;SDS011;39397;53.204;5.778;2022-09-09T09:00:29;29.98;;;2.60;;
53519;SDS011;39397;53.204;5.778;2022-09-09T09:03:09;40.97;;;4.15;;
53519;SDS011;39397;53.204;5.778;2022-09-09T09:05:51;30.85;;;3.10;;
53519;SDS011;39397;53.204;5.778;2022-09-09T09:08:25;28.85;;;4.50;;
53519;SDS011;39397;53.204;5.778;2022-09-09T09:11:26;23.52;;;2.83;;
53519;SDS011;39397;53.204;5.778;2022-09-09T09:14:03;20.02;;;2.47;;
53519;SDS011;39397;53.204;5.778;2022-09-09T09:16:59;15.35;;;2.08;;
53519;SDS011;39397;53.204;5.778;2022-09-09T09:19:26;13.52;;;2.17;;
53519;SDS011;39397;53.204;5.778;2022-09-09T09:24:48;13.48;;;2.78;;
53519;SDS011;39397;53.204;5.778;2022-09-09T09:27:32;23.00;;;3.70;;
53519;SDS011;39397;53.204;5.778;2022-09-09T09:30:02;22.48;;;3.08;;
53519;SDS011;39397;53.204;5.778;2022-09-09T09:32:38;22.77;;;3.25;;
53519;SDS011;39397;53.204;5.778;2022-09-09T09:35:10;37.78;;;4.65;;
53519;SDS011;39397;53.204;5.778;2022-09-09T09:37:37;28.90;;;3.78;;
53519;SDS011;39397;53.204;5.778;2022-09-09T09:40:10;39.30;;;4.70;;
53519;SDS011;39397;53.204;5.778;2022-09-09T09:42:37;40.63;;;4.88;;
53519;SDS011;39397;53.204;5.778;2022-09-09T09:48:08;58.15;;;6.55;;
53519;SDS011;39397;53.204;5.778;2022-09-09T09:50:40;49.22;;;6.22;;
53519;SDS011;39397;53.204;5.778;2022-09-09T09:55:53;32.17;;;4.63;;
53519;SDS011;39397;53.204;5.778;2022-09-09T09:58:22;32.88;;;5.15;;
53519;SDS011;39397;53.204;5.778;2022-09-09T10:00:50;29.75;;;4.15;;
53519;SDS011;39397;53.204;5.778;2022-09-09T10:03:36;37.38;;;4.78;;
53519;SDS011;39397;53.204;5.778;2022-09-09T10:06:04;30.73;;;3.50;;
53519;SDS011;39397;53.204;5.778;2022-09-09T10:08:33;38.55;;;4.05;;
53519;SDS011;39397;53.204;5.778;2022-09-09T10:19:34;39.42;;;4.55;;
53519;SDS011;39397;53.204;5.778;2022-09-09T10:24:43;36.63;;;4.20;;
53519;SDS011;39397;53.204;5.778;2022-09-09T10:32:39;31.38;;;4.60;;
53519;SDS011;39397;53.204;5.778;2022-09-09T10:35:27;19.73;;;2.25;;
53519;SDS011;39397;53.204;5.778;2022-09-09T10:49:24;8.40;;;1.55;;
53519;SDS011;39397;53.204;5.778;2022-09-09T10:52:14;6.93;;;1.48;;
53519;SDS011;39397;53.204;5.778;2022-09-09T10:57:48;7.88;;;1.75;;
53519;SDS011;39397;53.204;5.778;2022-09-09T11:00:24;7.63;;;1.40;;
53519;SDS011;39397;53.204;5.778;2022-09-09T11:03:04;8.20;;;2.72;;
53519;SDS011;39397;53.204;5.778;2022-09-09T11:11:27;5.40;;;2.08;;
53519;SDS011;39397;53.204;5.778;2022-09-09T11:17:10;6.25;;;1.30;;
53519;SDS011;39397;53.204;5.778;2022-09-09T11:19:45;5.32;;;1.30;;
53519;SDS011;39397;53.204;5.778;2022-09-09T11:22:30;8.80;;;1.40;;
53519;SDS011;39397;53.204;5.778;2022-09-09T11:25:04;5.85;;;1.40;;
53519;SDS011;39397;53.204;5.778;2022-09-09T11:38:51;6.70;;;0.98;;
53519;SDS011;39397;53.204;5.778;2022-09-09T11:41:35;7.38;;;1.20;;
53519;SDS011;39397;53.204;5.778;2022-09-09T11:44:09;8.27;;;1.40;;
53519;SDS011;39397;53.204;5.778;2022-09-09T11:46:37;4.38;;;1.17;;
53519;SDS011;39397;53.204;5.778;2022-09-09T11:49:06;6.18;;;1.30;;
53519;SDS011;39397;53.204;5.778;2022-09-09T11:55:24;5.63;;;1.40;;
53519;SDS011;39397;53.204;5.778;2022-09-09T11:57:57;4.43;;;0.98;;
53519;SDS011;39397;53.204;5.778;2022-09-09T12:00:37;6.85;;;1.60;;
53519;SDS011;39397;53.204;5.778;2022-09-09T12:03:04;14.52;;;1.73;;
53519;SDS011;39397;53.204;5.778;2022-09-09T12:05:40;8.02;;;2.63;;
53519;SDS011;39397;53.204;5.778;2022-09-09T12:08:10;27.50;;;2.30;;
53519;SDS011;39397;53.204;5.778;2022-09-09T12:10:52;37.55;;;3.85;;
53519;SDS011;39397;53.204;5.778;2022-09-09T12:13:23;94.10;;;7.30;;
53519;SDS011;39397;53.204;5.778;2022-09-09T12:15:54;47.47;;;5.50;;
53519;SDS011;39397;53.204;5.778;2022-09-09T12:23:52;24.42;;;3.20;;
53519;SDS011;39397;53.204;5.778;2022-09-09T12:29:18;19.90;;;2.22;;
53519;SDS011;39397;53.204;5.778;2022-09-09T12:37:35;29.58;;;3.38;;
53519;SDS011;39397;53.204;5.778;2022-09-09T12:40:38;27.98;;;2.50;;
53519;SDS011;39397;53.204;5.778;2022-09-09T12:43:00;18.45;;;2.80;;
53519;SDS011;39397;53.204;5.778;2022-09-09T12:45:28;21.65;;;2.40;;
53519;SDS011;39397;53.204;5.778;2022-09-09T12:48:01;14.98;;;2.30;;
53519;SDS011;39397;53.204;5.778;2022-09-09T12:50:31;16.38;;;2.38;;
53519;SDS011;39397;53.204;5.778;2022-09-09T12:53:14;22.55;;;2.33;;
53519;SDS011;39397;53.204;5.778;2022-09-09T12:55:58;23.85;;;2.92;;
53519;SDS011;39397;53.204;5.778;2022-09-09T12:58:27;33.55;;;3.85;;
53519;SDS011;39397;53.204;5.778;2022-09-09T13:00:58;56.97;;;5.22;;
53519;SDS011;39397;53.204;5.778;2022-09-09T13:03:25;56.30;;;5.00;;
53519;SDS011;39397;53.204;5.778;2022-09-09T13:05:52;57.88;;;6.78;;
53519;SDS011;39397;53.204;5.778;2022-09-09T13:08:18;84.60;;;6.63;;
53519;SDS011;39397;53.204;5.778;2022-09-09T13:13:33;32.20;;;4.60;;
53519;SDS011;39397;53.204;5.778;2022-09-09T13:16:01;41.50;;;3.72;;
53519;SDS011;39397;53.204;5.778;2022-09-09T13:18:30;21.23;;;2.65;;
53519;SDS011;39397;53.204;5.778;2022-09-09T13:20:58;22.48;;;2.60;;
53519;SDS011;39397;53.204;5.778;2022-09-09T13:23:31;17.27;;;2.80;;
53519;SDS011;39397;53.204;5.778;2022-09-09T13:26:33;10.27;;;1.67;;
53519;SDS011;39397;53.204;5.778;2022-09-09T13:28:55;8.77;;;1.52;;
53519;SDS011;39397;53.204;5.778;2022-09-09T13:31:43;8.23;;;1.42;;
53519;SDS011;39397;53.204;5.778;2022-09-09T13:34:13;9.38;;;1.58;;
53519;SDS011;39397;53.204;5.778;2022-09-09T13:37:01;15.68;;;2.42;;
53519;SDS011;39397;53.204;5.778;2022-09-09T13:39:30;13.93;;;1.50;;
53519;SDS011;39397;53.204;5.778;2022-09-09T13:41:59;33.72;;;4.25;;
53519;SDS011;39397;53.204;5.778;2022-09-09T13:44:31;61.17;;;4.75;;
53519;SDS011;39397;53.204;5.778;2022-09-09T13:47:03;35.40;;;3.60;;
53519;SDS011;39397;53.204;5.778;2022-09-09T13:49:31;17.52;;;2.00;;
53519;SDS011;39397;53.204;5.778;2022-09-09T13:52:06;13.82;;;1.38;;
53519;SDS011;39397;53.204;5.778;2022-09-09T13:54:42;11.93;;;1.40;;
53519;SDS011;39397;53.204;5.778;2022-09-09T13:57:49;9.25;;;1.08;;
53519;SDS011;39397;53.204;5.778;2022-09-09T14:00:00;4.97;;;1.02;;
53519;SDS011;39397;53.204;5.778;2022-09-09T14:02:26;12.90;;;1.55;;
53519;SDS011;39397;53.204;5.778;2022-09-09T14:04:52;19.42;;;2.38;;
53519;SDS011;39397;53.204;5.778;2022-09-09T14:07:20;16.20;;;2.63;;
53519;SDS011;39397;53.204;5.778;2022-09-09T14:09:46;10.88;;;1.70;;
53519;SDS011;39397;53.204;5.778;2022-09-09T14:12:16;9.38;;;1.40;;
53519;SDS011;39397;53.204;5.778;2022-09-09T14:14:43;16.98;;;2.88;;
53519;SDS011;39397;53.204;5.778;2022-09-09T14:17:09;6.30;;;1.30;;
53519;SDS011;39397;53.204;5.778;2022-09-09T14:19:35;4.93;;;1.27;;
53519;SDS011;39397;53.204;5.778;2022-09-09T14:22:02;4.65;;;1.05;;
53519;SDS011;39397;53.204;5.778;2022-09-09T14:24:28;5.03;;;1.40;;
53519;SDS011;39397;53.204;5.778;2022-09-09T14:26:54;6.45;;;0.88;;
53519;SDS011;39397;53.204;5.778;2022-09-09T14:29:20;6.50;;;0.98;;
53519;SDS011;39397;53.204;5.778;2022-09-09T14:31:46;3.72;;;0.80;;
53519;SDS011;39397;53.204;5.778;2022-09-09T14:34:12;4.05;;;1.10;;
53519;SDS011;39397;53.204;5.778;2022-09-09T14:36:39;8.80;;;1.15;;
53519;SDS011;39397;53.204;5.778;2022-09-09T14:39:06;5.07;;;1.00;;
53519;SDS011;39397;53.204;5.778;2022-09-09T14:41:32;2.90;;;0.73;;
53519;SDS011;39397;53.204;5.778;2022-09-09T14:43:58;4.38;;;1.30;;
53519;SDS011;39397;53.204;5.778;2022-09-09T14:46:24;4.90;;;1.05;;
53519;SDS011;39397;53.204;5.778;2022-09-09T14:48:51;2.13;;;0.60;;
53519;SDS011;39397;53.204;5.778;2022-09-09T14:51:20;3.88;;;0.93;;
53519;SDS011;39397;53.204;5.778;2022-09-09T14:53:50;5.90;;;0.80;;
53519;SDS011;39397;53.204;5.778;2022-09-09T14:56:18;3.05;;;0.80;;
53519;SDS011;39397;53.204;5.778;2022-09-09T14:58:47;6.88;;;1.10;;
53519;SDS011;39397;53.204;5.778;2022-09-09T15:01:14;3.35;;;0.80;;
53519;SDS011;39397;53.204;5.778;2022-09-09T15:03:42;3.80;;;0.80;;
53519;SDS011;39397;53.204;5.778;2022-09-09T15:06:13;2.65;;;0.70;;
53519;SDS011;39397;53.204;5.778;2022-09-09T15:08:40;2.95;;;0.80;;
53519;SDS011;39397;53.204;5.778;2022-09-09T15:11:07;3.55;;;0.68;;
53519;SDS011;39397;53.204;5.778;2022-09-09T15:13:34;2.00;;;0.73;;
53519;SDS011;39397;53.204;5.778;2022-09-09T15:16:09;2.97;;;0.90;;
53519;SDS011;39397;53.204;5.778;2022-09-09T15:18:40;4.90;;;0.90;;
53519;SDS011;39397;53.204;5.778;2022-09-09T15:21:14;4.03;;;1.33;;
53519;SDS011;39397;53.204;5.778;2022-09-09T15:23:42;5.03;;;1.45;;
53519;SDS011;39397;53.204;5.778;2022-09-09T15:26:08;3.05;;;0.85;;
53519;SDS011;39397;53.204;5.778;2022-09-09T15:28:35;4.82;;;1.02;;
53519;SDS011;39397;53.204;5.778;2022-09-09T15:31:06;3.15;;;0.70;;
53519;SDS011;39397;53.204;5.778;2022-09-09T15:33:35;5.57;;;1.00;;
53519;SDS011;39397;53.204;5.778;2022-09-09T15:38:49;6.47;;;1.73;;
53519;SDS011;39397;53.204;5.778;2022-09-09T15:41:17;5.68;;;1.35;;
53519;SDS011;39397;53.204;5.778;2022-09-09T15:43:44;7.25;;;1.52;;
53519;SDS011;39397;53.204;5.778;2022-09-09T15:48:43;71.57;;;5.78;;
53519;SDS011;39397;53.204;5.778;2022-09-09T15:51:10;104.97;;;9.00;;
53519;SDS011;39397;53.204;5.778;2022-09-09T15:53:36;63.90;;;5.75;;
53519;SDS011;39397;53.204;5.778;2022-09-09T15:56:04;48.67;;;5.35;;
53519;SDS011;39397;53.204;5.778;2022-09-09T15:58:32;38.92;;;3.60;;
53519;SDS011;39397;53.204;5.778;2022-09-09T16:01:05;29.70;;;3.03;;
53519;SDS011;39397;53.204;5.778;2022-09-09T16:03:35;43.30;;;3.55;;
53519;SDS011;39397;53.204;5.778;2022-09-09T16:06:02;21.60;;;2.97;;
53519;SDS011;39397;53.204;5.778;2022-09-09T16:08:32;30.50;;;2.95;;
53519;SDS011;39397;53.204;5.778;2022-09-09T16:11:06;26.67;;;2.72;;
53519;SDS011;39397;53.204;5.778;2022-09-09T16:13:34;18.33;;;2.53;;
53519;SDS011;39397;53.204;5.778;2022-09-09T16:16:07;16.13;;;2.30;;
53519;SDS011;39397;53.204;5.778;2022-09-09T16:18:34;22.70;;;2.40;;
53519;SDS011;39397;53.204;5.778;2022-09-09T16:21:00;14.35;;;1.60;;
53519;SDS011;39397;53.204;5.778;2022-09-09T16:23:27;20.30;;;2.60;;
53519;SDS011;39397;53.204;5.778;2022-09-09T16:25:55;14.50;;;1.90;;
53519;SDS011;39397;53.204;5.778;2022-09-09T16:28:21;14.85;;;2.00;;
53519;SDS011;39397;53.204;5.778;2022-09-09T16:30:48;12.73;;;1.58;;
53519;SDS011;39397;53.204;5.778;2022-09-09T16:33:14;11.00;;;2.10;;
53519;SDS011;39397;53.204;5.778;2022-09-09T16:35:41;14.70;;;1.98;;
53519;SDS011;39397;53.204;5.778;2022-09-09T16:38:06;5.80;;;1.40;;
53519;SDS011;39397;53.204;5.778;2022-09-09T16:40:35;8.35;;;1.60;;
53519;SDS011;39397;53.204;5.778;2022-09-09T16:43:03;8.18;;;1.67;;
53519;SDS011;39397;53.204;5.778;2022-09-09T16:45:29;5.55;;;1.13;;
53519;SDS011;39397;53.204;5.778;2022-09-09T16:47:55;5.22;;;1.05;;
53519;SDS011;39397;53.204;5.778;2022-09-09T16:50:21;5.85;;;1.00;;
53519;SDS011;39397;53.204;5.778;2022-09-09T16:52:47;2.45;;;0.70;;
53519;SDS011;39397;53.204;5.778;2022-09-09T16:55:12;7.30;;;1.13;;
53519;SDS011;39397;53.204;5.778;2022-09-09T16:57:39;6.65;;;1.35;;
53519;SDS011;39397;53.204;5.778;2022-09-09T17:00:05;5.18;;;1.00;;
53519;SDS011;39397;53.204;5.778;2022-09-09T17:02:32;9.13;;;1.38;;
53519;SDS011;39397;53.204;5.778;2022-09-09T17:04:57;8.55;;;1.20;;
53519;SDS011;39397;53.204;5.778;2022-09-09T17:07:24;9.65;;;1.20;;
53519;SDS011;39397;53.204;5.778;2022-09-09T17:09:50;7.32;;;1.13;;
53519;SDS011;39397;53.204;5.778;2022-09-09T17:12:16;6.20;;;1.10;;
53519;SDS011;39397;53.204;5.778;2022-09-09T17:14:42;5.47;;;1.00;;
53519;SDS011;39397;53.204;5.778;2022-09-09T17:17:08;4.80;;;0.95;;
53519;SDS011;39397;53.204;5.778;2022-09-09T17:19:34;5.30;;;1.05;;
53519;SDS011;39397;53.204;5.778;2022-09-09T17:21:59;4.25;;;0.90;;
53519;SDS011;39397;53.204;5.778;2022-09-09T17:24:26;4.60;;;0.90;;